AAM weather

Malamala Airport
Malamala, Limpopo, South Africa

Public forecast

Using degrees Celsius for public forecast. Weather courtesy of forecast.io.

Closest aviation weather report (METAR) to Malamala Airport

Closest report is Hoedspruit Air Force Base Airport, 38.2 nm (70.8 km) NW. Retrieved 2019/10/21 14:00 UTC (12 minutes ago):

FAHS 211400Z AUTO 05009KT //// // ////// 41/09 Q1005

Closest aviation forecast (TAF) to Malamala Airport

Forecast is more than 12 hours old.

Closest forecast is Hoedspruit Air Force Base Airport, 38.2 nm (70.8 km) NW. Retrieved 2017/05/23 04:01 UTC (2 years ago):

TAF FAHS 230300Z 2304/2315 VRB02KT CAVOK TX29/2312ZTN12/2304Z